sensor_id;sensor_type;location;lat;lon;timestamp;pressure;altitude;pressure_sealevel;temperature;humidity
77062;BME280;65989;51.686;5.138;2023-12-20T00:00:57;101745.72;;;5.88;100.00
77062;BME280;65989;51.686;5.138;2023-12-20T00:03:22;101728.34;;;5.87;100.00
77062;BME280;65989;51.686;5.138;2023-12-20T00:05:49;101748.78;;;5.92;100.00
77062;BME280;65989;51.686;5.138;2023-12-20T00:08:15;101742.53;;;5.93;100.00
77062;BME280;65989;51.686;5.138;2023-12-20T00:10:40;101750.03;;;5.96;100.00
77062;BME280;65989;51.686;5.138;2023-12-20T00:13:05;101738.47;;;5.97;100.00
77062;BME280;65989;51.686;5.138;2023-12-20T00:15:32;101730.00;;;5.95;100.00
77062;BME280;65989;51.686;5.138;2023-12-20T00:17:57;101722.66;;;5.83;100.00
77062;BME280;65989;51.686;5.138;2023-12-20T00:20:23;101731.75;;;5.74;100.00
77062;BME280;65989;51.686;5.138;2023-12-20T00:22:48;101726.69;;;5.73;100.00
77062;BME280;65989;51.686;5.138;2023-12-20T00:25:14;101733.97;;;5.71;100.00
77062;BME280;65989;51.686;5.138;2023-12-20T00:27:39;101734.53;;;5.66;100.00
77062;BME280;65989;51.686;5.138;2023-12-20T00:30:05;101723.00;;;5.67;100.00
77062;BME280;65989;51.686;5.138;2023-12-20T00:32:30;101718.97;;;5.64;100.00
77062;BME280;65989;51.686;5.138;2023-12-20T00:34:56;101718.56;;;5.61;100.00
77062;BME280;65989;51.686;5.138;2023-12-20T00:37:21;101711.06;;;5.58;100.00
77062;BME280;65989;51.686;5.138;2023-12-20T00:39:47;101711.47;;;5.55;100.00
77062;BME280;65989;51.686;5.138;2023-12-20T00:42:13;101724.41;;;5.56;100.00
77062;BME280;65989;51.686;5.138;2023-12-20T00:44:38;101711.25;;;5.49;100.00
77062;BME280;65989;51.686;5.138;2023-12-20T00:47:04;101712.03;;;5.43;100.00
77062;BME280;65989;51.686;5.138;2023-12-20T00:49:29;101706.38;;;5.40;100.00
77062;BME280;65989;51.686;5.138;2023-12-20T00:51:54;101706.31;;;5.33;100.00
77062;BME280;65989;51.686;5.138;2023-12-20T00:54:20;101712.00;;;5.30;100.00
77062;BME280;65989;51.686;5.138;2023-12-20T00:56:45;101713.19;;;5.34;100.00
77062;BME280;65989;51.686;5.138;2023-12-20T00:59:10;101712.81;;;5.37;100.00
77062;BME280;65989;51.686;5.138;2023-12-20T01:01:36;101708.94;;;5.33;100.00
77062;BME280;65989;51.686;5.138;2023-12-20T01:04:01;101706.75;;;5.30;100.00
77062;BME280;65989;51.686;5.138;2023-12-20T01:06:27;101712.00;;;5.30;100.00
77062;BME280;65989;51.686;5.138;2023-12-20T01:08:52;101716.19;;;5.24;100.00
77062;BME280;65989;51.686;5.138;2023-12-20T01:11:17;101705.84;;;5.16;100.00
77062;BME280;65989;51.686;5.138;2023-12-20T01:13:43;101711.72;;;5.18;100.00
77062;BME280;65989;51.686;5.138;2023-12-20T01:16:12;101718.38;;;5.14;100.00
77062;BME280;65989;51.686;5.138;2023-12-20T01:18:37;101717.19;;;5.16;100.00
77062;BME280;65989;51.686;5.138;2023-12-20T01:21:04;101716.16;;;5.11;100.00
77062;BME280;65989;51.686;5.138;2023-12-20T01:23:30;101719.16;;;5.07;100.00
77062;BME280;65989;51.686;5.138;2023-12-20T01:25:55;101718.53;;;5.05;100.00
77062;BME280;65989;51.686;5.138;2023-12-20T01:28:21;101731.25;;;5.02;100.00
77062;BME280;65989;51.686;5.138;2023-12-20T01:30:46;101734.06;;;5.00;100.00
77062;BME280;65989;51.686;5.138;2023-12-20T01:33:12;101736.88;;;4.99;100.00
77062;BME280;65989;51.686;5.138;2023-12-20T01:35:37;101735.09;;;5.06;100.00
77062;BME280;65989;51.686;5.138;2023-12-20T01:38:03;101721.59;;;5.09;100.00
77062;BME280;65989;51.686;5.138;2023-12-20T01:40:28;101712.06;;;5.08;100.00
77062;BME280;65989;51.686;5.138;2023-12-20T01:43:09;101712.47;;;5.05;100.00
77062;BME280;65989;51.686;5.138;2023-12-20T01:45:35;101705.16;;;4.93;100.00
77062;BME280;65989;51.686;5.138;2023-12-20T01:48:01;101706.94;;;4.93;100.00
77062;BME280;65989;51.686;5.138;2023-12-20T01:50:28;101710.78;;;4.90;100.00
77062;BME280;65989;51.686;5.138;2023-12-20T01:52:55;101716.44;;;4.87;100.00
77062;BME280;65989;51.686;5.138;2023-12-20T01:55:23;101725.31;;;4.86;100.00
77062;BME280;65989;51.686;5.138;2023-12-20T01:57:49;101718.81;;;4.82;100.00
77062;BME280;65989;51.686;5.138;2023-12-20T02:00:15;101725.06;;;4.81;100.00
77062;BME280;65989;51.686;5.138;2023-12-20T02:02:43;101724.44;;;4.79;100.00
77062;BME280;65989;51.686;5.138;2023-12-20T02:05:10;101710.53;;;4.78;100.00
77062;BME280;65989;51.686;5.138;2023-12-20T02:07:36;101710.16;;;4.88;100.00
77062;BME280;65989;51.686;5.138;2023-12-20T02:10:02;101704.97;;;5.02;100.00
77062;BME280;65989;51.686;5.138;2023-12-20T02:12:29;101711.06;;;5.09;100.00
77062;BME280;65989;51.686;5.138;2023-12-20T02:14:54;101717.34;;;5.15;100.00
77062;BME280;65989;51.686;5.138;2023-12-20T02:17:20;101727.31;;;5.19;100.00
77062;BME280;65989;51.686;5.138;2023-12-20T02:19:46;101729.16;;;5.26;100.00
77062;BME280;65989;51.686;5.138;2023-12-20T02:22:12;101712.16;;;5.21;100.00
77062;BME280;65989;51.686;5.138;2023-12-20T02:24:38;101720.28;;;5.27;100.00
77062;BME280;65989;51.686;5.138;2023-12-20T02:27:06;101718.81;;;5.24;100.00
77062;BME280;65989;51.686;5.138;2023-12-20T02:29:33;101718.41;;;5.20;100.00
77062;BME280;65989;51.686;5.138;2023-12-20T02:31:59;101715.56;;;5.22;100.00
77062;BME280;65989;51.686;5.138;2023-12-20T02:34:24;101703.25;;;5.22;100.00
77062;BME280;65989;51.686;5.138;2023-12-20T02:36:49;101703.63;;;5.13;100.00
77062;BME280;65989;51.686;5.138;2023-12-20T02:39:15;101714.94;;;5.13;100.00
77062;BME280;65989;51.686;5.138;2023-12-20T02:41:40;101704.63;;;5.12;100.00
77062;BME280;65989;51.686;5.138;2023-12-20T02:44:06;101704.44;;;5.20;100.00
77062;BME280;65989;51.686;5.138;2023-12-20T02:46:31;101703.28;;;5.29;100.00
77062;BME280;65989;51.686;5.138;2023-12-20T02:48:56;101711.41;;;5.34;100.00
77062;BME280;65989;51.686;5.138;2023-12-20T02:51:22;101707.59;;;5.44;100.00
77062;BME280;65989;51.686;5.138;2023-12-20T02:53:47;101707.19;;;5.47;100.00
77062;BME280;65989;51.686;5.138;2023-12-20T02:56:12;101699.13;;;5.48;100.00
77062;BME280;65989;51.686;5.138;2023-12-20T02:58:39;101700.75;;;5.56;100.00
77062;BME280;65989;51.686;5.138;2023-12-20T03:01:05;101699.34;;;5.60;100.00
77062;BME280;65989;51.686;5.138;2023-12-20T03:03:30;101699.34;;;5.60;100.00
77062;BME280;65989;51.686;5.138;2023-12-20T03:05:56;101695.09;;;5.52;100.00
77062;BME280;65989;51.686;5.138;2023-12-20T03:08:21;101686.97;;;5.47;100.00
77062;BME280;65989;51.686;5.138;2023-12-20T03:10:47;101689.19;;;5.44;100.00
77062;BME280;65989;51.686;5.138;2023-12-20T03:13:12;101677.63;;;5.38;100.00
77062;BME280;65989;51.686;5.138;2023-12-20T03:15:38;101683.66;;;5.32;100.00
77062;BME280;65989;51.686;5.138;2023-12-20T03:18:03;101672.97;;;5.27;100.00
77062;BME280;65989;51.686;5.138;2023-12-20T03:20:29;101670.34;;;5.27;100.00
77062;BME280;65989;51.686;5.138;2023-12-20T03:22:56;101683.28;;;5.28;100.00
77062;BME280;65989;51.686;5.138;2023-12-20T03:25:21;101672.97;;;5.27;100.00
77062;BME280;65989;51.686;5.138;2023-12-20T03:27:46;101682.66;;;5.33;100.00
77062;BME280;65989;51.686;5.138;2023-12-20T03:30:12;101683.28;;;5.35;100.00
77062;BME280;65989;51.686;5.138;2023-12-20T03:32:38;101676.00;;;5.37;100.00
77062;BME280;65989;51.686;5.138;2023-12-20T03:35:04;101676.63;;;5.39;100.00
77062;BME280;65989;51.686;5.138;2023-12-20T03:37:30;101668.34;;;5.42;100.00
77062;BME280;65989;51.686;5.138;2023-12-20T03:39:55;101653.75;;;5.33;100.00
77062;BME280;65989;51.686;5.138;2023-12-20T03:42:20;101664.09;;;5.34;100.00
77062;BME280;65989;51.686;5.138;2023-12-20T03:44:46;101671.59;;;5.37;100.00
77062;BME280;65989;51.686;5.138;2023-12-20T03:47:11;101677.47;;;5.46;100.00
77062;BME280;65989;51.686;5.138;2023-12-20T03:49:37;101674.44;;;5.49;100.00
77062;BME280;65989;51.686;5.138;2023-12-20T03:52:04;101677.28;;;5.55;100.00
77062;BME280;65989;51.686;5.138;2023-12-20T03:54:29;101680.94;;;5.53;100.00
77062;BME280;65989;51.686;5.138;2023-12-20T03:56:55;101683.97;;;5.50;100.00
77062;BME280;65989;51.686;5.138;2023-12-20T03:59:20;101675.44;;;5.48;100.00
77062;BME280;65989;51.686;5.138;2023-12-20T04:01:48;101669.59;;;5.46;100.00
77062;BME280;65989;51.686;5.138;2023-12-20T04:04:14;101674.84;;;5.53;100.00
77062;BME280;65989;51.686;5.138;2023-12-20T04:06:39;101679.53;;;5.58;100.00
77062;BME280;65989;51.686;5.138;2023-12-20T04:09:05;101678.94;;;5.62;100.00
77062;BME280;65989;51.686;5.138;2023-12-20T04:11:30;101672.66;;;5.63;100.00
77062;BME280;65989;51.686;5.138;2023-12-20T04:13:56;101685.41;;;5.73;100.00
77062;BME280;65989;51.686;5.138;2023-12-20T04:16:21;101683.41;;;5.75;100.00
77062;BME280;65989;51.686;5.138;2023-12-20T04:18:46;101685.63;;;5.78;100.00
77062;BME280;65989;51.686;5.138;2023-12-20T04:21:12;101680.59;;;5.77;100.00
77062;BME280;65989;51.686;5.138;2023-12-20T04:23:37;101691.09;;;5.83;100.00
77062;BME280;65989;51.686;5.138;2023-12-20T04:26:03;101682.22;;;5.85;100.00
77062;BME280;65989;51.686;5.138;2023-12-20T04:28:28;101692.13;;;5.82;100.00
77062;BME280;65989;51.686;5.138;2023-12-20T04:30:56;101675.94;;;5.79;100.00
77062;BME280;65989;51.686;5.138;2023-12-20T04:33:22;101680.75;;;5.75;100.00
77062;BME280;65989;51.686;5.138;2023-12-20T04:35:47;101688.03;;;5.73;100.00
77062;BME280;65989;51.686;5.138;2023-12-20T04:38:13;101684.81;;;5.71;100.00
77062;BME280;65989;51.686;5.138;2023-12-20T04:40:41;101686.59;;;5.64;100.00
77062;BME280;65989;51.686;5.138;2023-12-20T04:43:07;101689.22;;;5.57;100.00
77062;BME280;65989;51.686;5.138;2023-12-20T04:45:34;101684.34;;;5.54;100.00
77062;BME280;65989;51.686;5.138;2023-12-20T04:47:59;101683.16;;;5.57;100.00
77062;BME280;65989;51.686;5.138;2023-12-20T04:50:25;101684.19;;;5.62;100.00
77062;BME280;65989;51.686;5.138;2023-12-20T04:52:51;101688.66;;;5.68;100.00
77062;BME280;65989;51.686;5.138;2023-12-20T04:55:17;101682.78;;;5.73;100.00
77062;BME280;65989;51.686;5.138;2023-12-20T04:57:42;101675.09;;;5.78;100.00
77062;BME280;65989;51.686;5.138;2023-12-20T05:00:08;101677.75;;;5.78;100.00
77062;BME280;65989;51.686;5.138;2023-12-20T05:02:35;101675.72;;;5.80;100.00
77062;BME280;65989;51.686;5.138;2023-12-20T05:05:01;101668.03;;;5.86;100.00
77062;BME280;65989;51.686;5.138;2023-12-20T05:07:26;101670.47;;;5.87;100.00
77062;BME280;65989;51.686;5.138;2023-12-20T05:09:54;101666.44;;;5.85;100.00
77062;BME280;65989;51.686;5.138;2023-12-20T05:12:20;101660.16;;;5.86;100.00
77062;BME280;65989;51.686;5.138;2023-12-20T05:14:46;101665.19;;;5.80;100.00
77062;BME280;65989;51.686;5.138;2023-12-20T05:17:11;101657.72;;;5.71;100.00
77062;BME280;65989;51.686;5.138;2023-12-20T05:19:37;101655.47;;;5.61;100.00
77062;BME280;65989;51.686;5.138;2023-12-20T05:22:02;101663.09;;;5.49;100.00
77062;BME280;65989;51.686;5.138;2023-12-20T05:24:28;101670.38;;;5.40;100.00
77062;BME280;65989;51.686;5.138;2023-12-20T05:26:53;101663.88;;;5.29;100.00
77062;BME280;65989;51.686;5.138;2023-12-20T05:29:19;101650.91;;;5.21;100.00
77062;BME280;65989;51.686;5.138;2023-12-20T05:31:44;101658.56;;;5.16;100.00
77062;BME280;65989;51.686;5.138;2023-12-20T05:34:10;101663.59;;;5.11;100.00
77062;BME280;65989;51.686;5.138;2023-12-20T05:36:36;101656.28;;;5.06;100.00
77062;BME280;65989;51.686;5.138;2023-12-20T05:39:01;101663.78;;;5.02;100.00
77062;BME280;65989;51.686;5.138;2023-12-20T05:41:26;101671.22;;;4.99;100.00
77062;BME280;65989;51.686;5.138;2023-12-20T05:43:52;101672.22;;;4.98;100.00
77062;BME280;65989;51.686;5.138;2023-12-20T05:46:17;101662.91;;;4.95;100.00
77062;BME280;65989;51.686;5.138;2023-12-20T05:48:42;101673.44;;;4.95;100.00
77062;BME280;65989;51.686;5.138;2023-12-20T05:51:11;101674.66;;;4.99;100.00
77062;BME280;65989;51.686;5.138;2023-12-20T05:53:39;101688.41;;;5.01;100.00
77062;BME280;65989;51.686;5.138;2023-12-20T05:56:05;101679.53;;;5.02;100.00
77062;BME280;65989;51.686;5.138;2023-12-20T05:58:32;101680.56;;;5.08;100.00
77062;BME280;65989;51.686;5.138;2023-12-20T06:00:57;101692.91;;;5.14;100.00
77062;BME280;65989;51.686;5.138;2023-12-20T06:03:22;101686.06;;;5.20;100.00
77062;BME280;65989;51.686;5.138;2023-12-20T06:05:48;101685.06;;;5.21;100.00
77062;BME280;65989;51.686;5.138;2023-12-20T06:08:14;101680.00;;;5.13;100.00
77062;BME280;65989;51.686;5.138;2023-12-20T06:10:39;101678.31;;;5.05;100.00
77062;BME280;65989;51.686;5.138;2023-12-20T06:13:11;101668.59;;;4.99;100.00
77062;BME280;65989;51.686;5.138;2023-12-20T06:15:38;101673.81;;;4.92;100.00
77062;BME280;65989;51.686;5.138;2023-12-20T06:18:05;101676.03;;;4.88;100.00
77062;BME280;65989;51.686;5.138;2023-12-20T06:20:30;101676.41;;;4.85;100.00
77062;BME280;65989;51.686;5.138;2023-12-20T06:22:56;101673.94;;;4.77;100.00
77062;BME280;65989;51.686;5.138;2023-12-20T06:25:21;101668.50;;;4.78;100.00
77062;BME280;65989;51.686;5.138;2023-12-20T06:27:46;101670.13;;;4.80;100.00
77062;BME280;65989;51.686;5.138;2023-12-20T06:30:12;101672.94;;;4.78;100.00
77062;BME280;65989;51.686;5.138;2023-12-20T06:32:37;101672.53;;;4.81;100.00
77062;BME280;65989;51.686;5.138;2023-12-20T06:35:05;101668.72;;;4.84;100.00
77062;BME280;65989;51.686;5.138;2023-12-20T06:37:30;101680.09;;;4.98;100.00
77062;BME280;65989;51.686;5.138;2023-12-20T06:39:56;101674.84;;;4.98;100.00
77062;BME280;65989;51.686;5.138;2023-12-20T06:42:22;101667.75;;;4.91;100.00
77062;BME280;65989;51.686;5.138;2023-12-20T06:44:47;101670.38;;;4.91;100.00
77062;BME280;65989;51.686;5.138;2023-12-20T06:47:13;101676.66;;;4.97;100.00
77062;BME280;65989;51.686;5.138;2023-12-20T06:49:39;101674.91;;;5.04;100.00
77062;BME280;65989;51.686;5.138;2023-12-20T06:52:05;101670.66;;;5.10;100.00
77062;BME280;65989;51.686;5.138;2023-12-20T06:54:30;101674.94;;;5.18;100.00
77062;BME280;65989;51.686;5.138;2023-12-20T06:56:56;101673.97;;;5.26;100.00
77062;BME280;65989;51.686;5.138;2023-12-20T06:59:21;101674.16;;;5.31;100.00
77062;BME280;65989;51.686;5.138;2023-12-20T07:01:50;101664.28;;;5.33;100.00
77062;BME280;65989;51.686;5.138;2023-12-20T07:04:15;101661.88;;;5.38;100.00
77062;BME280;65989;51.686;5.138;2023-12-20T07:06:41;101663.31;;;5.41;100.00
77062;BME280;65989;51.686;5.138;2023-12-20T07:09:07;101665.94;;;5.41;100.00
77062;BME280;65989;51.686;5.138;2023-12-20T07:11:32;101661.09;;;5.44;100.00
77062;BME280;65989;51.686;5.138;2023-12-20T07:13:58;101667.97;;;5.45;100.00
77062;BME280;65989;51.686;5.138;2023-12-20T07:16:23;101653.59;;;5.41;100.00
77062;BME280;65989;51.686;5.138;2023-12-20T07:18:49;101664.13;;;5.48;100.00
77062;BME280;65989;51.686;5.138;2023-12-20T07:21:15;101667.16;;;5.51;100.00
77062;BME280;65989;51.686;5.138;2023-12-20T07:23:40;101665.78;;;5.56;100.00
77062;BME280;65989;51.686;5.138;2023-12-20T07:26:06;101665.56;;;5.57;100.00
77062;BME280;65989;51.686;5.138;2023-12-20T07:28:32;101664.38;;;5.60;100.00
77062;BME280;65989;51.686;5.138;2023-12-20T07:30:57;101661.53;;;5.61;100.00
77062;BME280;65989;51.686;5.138;2023-12-20T12:09:13;101544.47;;;7.61;100.00
77062;BME280;65989;51.686;5.138;2023-12-20T12:11:40;101548.50;;;7.63;100.00
77062;BME280;65989;51.686;5.138;2023-12-20T12:14:07;101543.41;;;7.69;100.00
77062;BME280;65989;51.686;5.138;2023-12-20T12:16:32;101539.53;;;7.71;100.00
77062;BME280;65989;51.686;5.138;2023-12-20T12:18:58;101551.28;;;7.75;100.00
77062;BME280;65989;51.686;5.138;2023-12-20T12:21:24;101542.78;;;7.73;100.00
77062;BME280;65989;51.686;5.138;2023-12-20T12:23:50;101547.97;;;7.80;100.00
77062;BME280;65989;51.686;5.138;2023-12-20T12:26:15;101546.72;;;7.83;100.00
77062;BME280;65989;51.686;5.138;2023-12-20T12:28:41;101537.41;;;7.80;100.00
77062;BME280;65989;51.686;5.138;2023-12-20T12:31:08;101543.66;;;7.86;100.00
77062;BME280;65989;51.686;5.138;2023-12-20T12:33:34;101538.53;;;7.91;100.00
77062;BME280;65989;51.686;5.138;2023-12-20T12:36:03;101543.31;;;8.01;100.00
77062;BME280;65989;51.686;5.138;2023-12-20T12:38:30;101536.56;;;8.05;100.00
77062;BME280;65989;51.686;5.138;2023-12-20T12:40:56;101521.31;;;8.07;100.00
77062;BME280;65989;51.686;5.138;2023-12-20T12:43:21;101530.00;;;8.14;100.00
77062;BME280;65989;51.686;5.138;2023-12-20T12:45:48;101531.59;;;8.15;100.00
77062;BME280;65989;51.686;5.138;2023-12-20T12:48:14;101524.13;;;8.12;100.00
77062;BME280;65989;51.686;5.138;2023-12-20T12:50:39;101520.66;;;8.12;100.00
77062;BME280;65989;51.686;5.138;2023-12-20T12:53:05;101510.91;;;8.12;100.00
77062;BME280;65989;51.686;5.138;2023-12-20T12:55:30;101521.47;;;8.12;100.00
77062;BME280;65989;51.686;5.138;2023-12-20T12:57:56;101513.56;;;8.12;100.00
77062;BME280;65989;51.686;5.138;2023-12-20T13:00:21;101512.09;;;8.16;100.00
77062;BME280;65989;51.686;5.138;2023-12-20T13:02:47;101506.97;;;8.21;100.00
77062;BME280;65989;51.686;5.138;2023-12-20T13:05:12;101496.56;;;8.27;100.00
77062;BME280;65989;51.686;5.138;2023-12-20T13:07:38;101485.53;;;8.30;100.00
77062;BME280;65989;51.686;5.138;2023-12-20T13:10:05;101491.84;;;8.29;100.00
77062;BME280;65989;51.686;5.138;2023-12-20T13:12:31;101498.88;;;8.35;100.00
77062;BME280;65989;51.686;5.138;2023-12-20T13:14:57;101492.13;;;8.39;100.00
77062;BME280;65989;51.686;5.138;2023-12-20T13:17:23;101486.84;;;8.39;100.00
77062;BME280;65989;51.686;5.138;2023-12-20T13:19:49;101478.78;;;8.34;100.00
77062;BME280;65989;51.686;5.138;2023-12-20T13:22:15;101465.00;;;8.32;100.00
77062;BME280;65989;51.686;5.138;2023-12-20T13:24:40;101464.63;;;8.28;100.00
77062;BME280;65989;51.686;5.138;2023-12-20T13:27:06;101469.34;;;8.26;100.00
77062;BME280;65989;51.686;5.138;2023-12-20T13:29:31;101450.06;;;8.26;100.00
77062;BME280;65989;51.686;5.138;2023-12-20T13:31:57;101452.69;;;8.26;100.00
77062;BME280;65989;51.686;5.138;2023-12-20T13:34:23;101443.38;;;8.23;100.00
77062;BME280;65989;51.686;5.138;2023-12-20T13:36:49;101444.06;;;8.18;100.00
77062;BME280;65989;51.686;5.138;2023-12-20T13:39:15;101448.34;;;8.13;100.00
77062;BME280;65989;51.686;5.138;2023-12-20T13:41:44;101445.94;;;8.11;100.00
77062;BME280;65989;51.686;5.138;2023-12-20T13:44:10;101451.22;;;8.11;100.00
77062;BME280;65989;51.686;5.138;2023-12-20T13:46:36;101444.56;;;8.09;100.00
77062;BME280;65989;51.686;5.138;2023-12-20T13:49:01;101437.09;;;8.05;100.00
77062;BME280;65989;51.686;5.138;2023-12-20T13:51:27;101433.19;;;8.08;100.00
77062;BME280;65989;51.686;5.138;2023-12-20T13:53:52;101434.22;;;8.07;100.00
77062;BME280;65989;51.686;5.138;2023-12-20T13:56:18;101433.78;;;8.10;100.00
77062;BME280;65989;51.686;5.138;2023-12-20T13:58:45;101434.13;;;8.14;100.00
77062;BME280;65989;51.686;5.138;2023-12-20T14:01:11;101427.03;;;8.14;100.00
77062;BME280;65989;51.686;5.138;2023-12-20T14:03:37;101420.13;;;8.13;100.00
77062;BME280;65989;51.686;5.138;2023-12-20T14:06:02;101425.06;;;8.10;100.00
77062;BME280;65989;51.686;5.138;2023-12-20T14:08:28;101423.66;;;8.07;100.00
77062;BME280;65989;51.686;5.138;2023-12-20T14:10:54;101417.81;;;8.05;100.00
77062;BME280;65989;51.686;5.138;2023-12-20T14:13:19;101420.88;;;8.02;100.00
77062;BME280;65989;51.686;5.138;2023-12-20T14:15:46;101430.84;;;8.00;100.00
77062;BME280;65989;51.686;5.138;2023-12-20T14:18:12;101426.38;;;8.00;100.00
77062;BME280;65989;51.686;5.138;2023-12-20T14:20:40;101430.25;;;7.98;100.00
77062;BME280;65989;51.686;5.138;2023-12-20T14:23:07;101429.91;;;7.94;100.00
77062;BME280;65989;51.686;5.138;2023-12-20T14:25:34;101436.78;;;7.95;100.00
77062;BME280;65989;51.686;5.138;2023-12-20T14:28:03;101430.72;;;7.95;100.00
77062;BME280;65989;51.686;5.138;2023-12-20T14:30:28;101416.94;;;7.92;100.00
77062;BME280;65989;51.686;5.138;2023-12-20T14:32:53;101424.63;;;7.94;100.00
77062;BME280;65989;51.686;5.138;2023-12-20T14:35:19;101413.28;;;7.94;100.00
77062;BME280;65989;51.686;5.138;2023-12-20T14:37:45;101420.19;;;7.95;100.00
77062;BME280;65989;51.686;5.138;2023-12-20T14:40:10;101423.84;;;7.94;100.00
77062;BME280;65989;51.686;5.138;2023-12-20T14:42:40;101428.28;;;7.93;100.00
77062;BME280;65989;51.686;5.138;2023-12-20T14:45:06;101438.25;;;7.91;100.00
77062;BME280;65989;51.686;5.138;2023-12-20T14:47:32;101443.78;;;7.89;100.00
77062;BME280;65989;51.686;5.138;2023-12-20T14:49:58;101451.09;;;7.87;100.00
77062;BME280;65989;51.686;5.138;2023-12-20T14:52:23;101447.63;;;7.87;100.00
77062;BME280;65989;51.686;5.138;2023-12-20T14:54:48;101447.03;;;7.85;100.00
77062;BME280;65989;51.686;5.138;2023-12-20T14:57:14;101434.09;;;7.83;100.00
77062;BME280;65989;51.686;5.138;2023-12-20T14:59:39;101433.84;;;7.85;100.00
77062;BME280;65989;51.686;5.138;2023-12-20T15:02:05;101441.56;;;7.86;100.00
77062;BME280;65989;51.686;5.138;2023-12-20T15:04:31;101433.22;;;7.89;100.00
77062;BME280;65989;51.686;5.138;2023-12-20T15:06:57;101424.72;;;7.87;100.00
77062;BME280;65989;51.686;5.138;2023-12-20T15:09:22;101430.78;;;7.88;100.00
77062;BME280;65989;51.686;5.138;2023-12-20T15:11:48;101424.91;;;7.86;100.00
77062;BME280;65989;51.686;5.138;2023-12-20T15:14:16;101413.78;;;7.84;100.00
77062;BME280;65989;51.686;5.138;2023-12-20T15:16:45;101414.81;;;7.83;100.00
77062;BME280;65989;51.686;5.138;2023-12-20T15:19:12;101403.88;;;7.79;100.00
77062;BME280;65989;51.686;5.138;2023-12-20T15:21:37;101411.38;;;7.82;100.00
77062;BME280;65989;51.686;5.138;2023-12-20T15:24:07;101402.88;;;7.80;100.00
77062;BME280;65989;51.686;5.138;2023-12-20T15:26:40;101414.22;;;7.81;100.00
77062;BME280;65989;51.686;5.138;2023-12-20T15:29:06;101418.69;;;7.80;100.00
77062;BME280;65989;51.686;5.138;2023-12-20T15:31:31;101421.53;;;7.78;100.00
77062;BME280;65989;51.686;5.138;2023-12-20T15:33:59;101410.19;;;7.78;100.00
77062;BME280;65989;51.686;5.138;2023-12-20T15:36:24;101418.34;;;7.76;100.00
77062;BME280;65989;51.686;5.138;2023-12-20T15:38:51;101411.88;;;7.72;100.00
77062;BME280;65989;51.686;5.138;2023-12-20T15:41:21;101419.56;;;7.74;100.00
77062;BME280;65989;51.686;5.138;2023-12-20T15:43:47;101427.47;;;7.74;100.00
77062;BME280;65989;51.686;5.138;2023-12-20T15:46:12;101431.16;;;7.73;100.00
77062;BME280;65989;51.686;5.138;2023-12-20T15:48:37;101433.34;;;7.76;100.00
77062;BME280;65989;51.686;5.138;2023-12-20T15:51:09;101418.97;;;7.72;100.00
77062;BME280;65989;51.686;5.138;2023-12-20T15:53:35;101419.81;;;7.72;100.00
77062;BME280;65989;51.686;5.138;2023-12-20T15:56:01;101415.31;;;7.73;100.00
77062;BME280;65989;51.686;5.138;2023-12-20T15:58:27;101398.47;;;7.74;100.00
77062;BME280;65989;51.686;5.138;2023-12-20T16:00:53;101411.88;;;7.72;100.00
77062;BME280;65989;51.686;5.138;2023-12-20T16:03:18;101406.19;;;7.75;100.00
77062;BME280;65989;51.686;5.138;2023-12-20T16:05:44;101401.94;;;7.74;100.00
77062;BME280;65989;51.686;5.138;2023-12-20T16:08:09;101393.78;;;7.76;100.00
77062;BME280;65989;51.686;5.138;2023-12-20T16:10:34;101370.03;;;7.76;100.00
77062;BME280;65989;51.686;5.138;2023-12-20T16:13:00;101372.47;;;7.77;100.00
77062;BME280;65989;51.686;5.138;2023-12-20T16:15:25;101361.31;;;7.75;100.00
77062;BME280;65989;51.686;5.138;2023-12-20T16:17:51;101348.94;;;7.76;100.00
77062;BME280;65989;51.686;5.138;2023-12-20T16:20:16;101351.81;;;7.74;100.00
77062;BME280;65989;51.686;5.138;2023-12-20T16:22:42;101337.78;;;7.74;100.00
77062;BME280;65989;51.686;5.138;2023-12-20T16:25:07;101344.09;;;7.73;100.00
77062;BME280;65989;51.686;5.138;2023-12-20T16:27:34;101360.75;;;7.73;100.00
77062;BME280;65989;51.686;5.138;2023-12-20T16:30:04;101358.91;;;7.74;100.00
77062;BME280;65989;51.686;5.138;2023-12-20T16:32:30;101362.94;;;7.76;100.00
77062;BME280;65989;51.686;5.138;2023-12-20T16:34:55;101347.13;;;7.76;100.00
77062;BME280;65989;51.686;5.138;2023-12-20T16:37:22;101357.00;;;7.81;100.00
77062;BME280;65989;51.686;5.138;2023-12-20T16:39:47;101342.19;;;7.80;100.00
77062;BME280;65989;51.686;5.138;2023-12-20T16:42:13;101338.72;;;7.80;100.00
77062;BME280;65989;51.686;5.138;2023-12-20T16:44:38;101333.44;;;7.80;100.00
77062;BME280;65989;51.686;5.138;2023-12-20T16:47:04;101332.56;;;7.86;100.00
77062;BME280;65989;51.686;5.138;2023-12-20T16:49:29;101328.75;;;7.82;100.00
77062;BME280;65989;51.686;5.138;2023-12-20T16:51:54;101317.19;;;7.83;100.00
77062;BME280;65989;51.686;5.138;2023-12-20T16:54:20;101323.28;;;7.83;100.00
77062;BME280;65989;51.686;5.138;2023-12-20T16:56:45;101311.91;;;7.83;100.00
77062;BME280;65989;51.686;5.138;2023-12-20T16:59:11;101302.63;;;7.80;100.00
77062;BME280;65989;51.686;5.138;2023-12-20T17:01:36;101295.28;;;7.82;100.00
77062;BME280;65989;51.686;5.138;2023-12-20T17:04:02;101296.06;;;7.83;100.00
77062;BME280;65989;51.686;5.138;2023-12-20T17:06:28;101293.66;;;7.81;100.00
77062;BME280;65989;51.686;5.138;2023-12-20T17:08:54;101298.72;;;7.83;100.00
77062;BME280;65989;51.686;5.138;2023-12-20T17:11:19;101285.53;;;7.83;100.00
77062;BME280;65989;51.686;5.138;2023-12-20T17:13:46;101281.28;;;7.82;100.00
77062;BME280;65989;51.686;5.138;2023-12-20T17:16:11;101287.38;;;7.82;100.00
77062;BME280;65989;51.686;5.138;2023-12-20T17:18:37;101276.81;;;7.82;100.00